sensor_id;sensor_type;location;lat;lon;timestamp;P1;durP1;ratioP1;P2;durP2;ratioP2
19543;SDS011;9917;51.256;7.152;2022-11-15T00:01:06;9.87;;;6.07;;
19543;SDS011;9917;51.256;7.152;2022-11-15T00:03:32;11.47;;;6.53;;
19543;SDS011;9917;51.256;7.152;2022-11-15T00:06:00;13.40;;;6.57;;
19543;SDS011;9917;51.256;7.152;2022-11-15T00:08:28;9.77;;;5.47;;
19543;SDS011;9917;51.256;7.152;2022-11-15T00:10:56;10.43;;;6.37;;
19543;SDS011;9917;51.256;7.152;2022-11-15T00:13:22;14.23;;;6.27;;
19543;SDS011;9917;51.256;7.152;2022-11-15T00:15:49;9.73;;;6.10;;
19543;SDS011;9917;51.256;7.152;2022-11-15T00:18:15;10.07;;;6.40;;
19543;SDS011;9917;51.256;7.152;2022-11-15T00:20:42;15.47;;;6.53;;
19543;SDS011;9917;51.256;7.152;2022-11-15T00:23:08;18.17;;;6.70;;
19543;SDS011;9917;51.256;7.152;2022-11-15T00:25:33;12.00;;;6.20;;
19543;SDS011;9917;51.256;7.152;2022-11-15T00:28:01;9.00;;;6.13;;
19543;SDS011;9917;51.256;7.152;2022-11-15T00:30:27;11.40;;;6.37;;
19543;SDS011;9917;51.256;7.152;2022-11-15T00:32:53;9.40;;;6.07;;
19543;SDS011;9917;51.256;7.152;2022-11-15T00:35:19;11.57;;;6.37;;
19543;SDS011;9917;51.256;7.152;2022-11-15T00:37:45;13.00;;;6.57;;
19543;SDS011;9917;51.256;7.152;2022-11-15T00:40:11;16.97;;;6.00;;
19543;SDS011;9917;51.256;7.152;2022-11-15T00:42:38;11.50;;;5.90;;
19543;SDS011;9917;51.256;7.152;2022-11-15T00:45:05;9.97;;;5.97;;
19543;SDS011;9917;51.256;7.152;2022-11-15T00:47:31;11.03;;;6.13;;
19543;SDS011;9917;51.256;7.152;2022-11-15T00:49:57;9.83;;;6.37;;
19543;SDS011;9917;51.256;7.152;2022-11-15T00:52:23;11.80;;;6.20;;
19543;SDS011;9917;51.256;7.152;2022-11-15T00:54:49;11.77;;;5.63;;
19543;SDS011;9917;51.256;7.152;2022-11-15T00:57:15;12.07;;;6.23;;
19543;SDS011;9917;51.256;7.152;2022-11-15T00:59:41;9.33;;;5.63;;
19543;SDS011;9917;51.256;7.152;2022-11-15T01:02:08;10.20;;;6.23;;
19543;SDS011;9917;51.256;7.152;2022-11-15T01:04:33;12.70;;;6.37;;
19543;SDS011;9917;51.256;7.152;2022-11-15T01:06:59;11.03;;;6.57;;
19543;SDS011;9917;51.256;7.152;2022-11-15T01:09:25;12.00;;;6.87;;
19543;SDS011;9917;51.256;7.152;2022-11-15T01:11:51;9.53;;;6.10;;
19543;SDS011;9917;51.256;7.152;2022-11-15T01:14:17;10.90;;;6.00;;
19543;SDS011;9917;51.256;7.152;2022-11-15T01:16:43;10.83;;;5.93;;
19543;SDS011;9917;51.256;7.152;2022-11-15T01:19:11;12.63;;;6.27;;
19543;SDS011;9917;51.256;7.152;2022-11-15T01:21:36;10.43;;;6.03;;
19543;SDS011;9917;51.256;7.152;2022-11-15T01:24:02;12.43;;;6.53;;
19543;SDS011;9917;51.256;7.152;2022-11-15T01:26:28;10.43;;;6.17;;
19543;SDS011;9917;51.256;7.152;2022-11-15T01:28:54;10.10;;;5.63;;
19543;SDS011;9917;51.256;7.152;2022-11-15T01:31:20;12.57;;;5.70;;
19543;SDS011;9917;51.256;7.152;2022-11-15T01:33:46;13.48;;;6.47;;
19543;SDS011;9917;51.256;7.152;2022-11-15T01:36:16;8.57;;;5.60;;
19543;SDS011;9917;51.256;7.152;2022-11-15T01:38:43;9.70;;;6.00;;
19543;SDS011;9917;51.256;7.152;2022-11-15T01:41:14;12.60;;;6.20;;
19543;SDS011;9917;51.256;7.152;2022-11-15T01:43:41;10.93;;;5.73;;
19543;SDS011;9917;51.256;7.152;2022-11-15T01:46:12;9.20;;;5.90;;
19543;SDS011;9917;51.256;7.152;2022-11-15T01:48:47;11.73;;;5.88;;
19543;SDS011;9917;51.256;7.152;2022-11-15T01:51:16;15.43;;;6.40;;
19543;SDS011;9917;51.256;7.152;2022-11-15T01:53:46;10.90;;;6.17;;
19543;SDS011;9917;51.256;7.152;2022-11-15T01:56:18;10.53;;;5.57;;
19543;SDS011;9917;51.256;7.152;2022-11-15T01:58:47;8.40;;;5.77;;
19543;SDS011;9917;51.256;7.152;2022-11-15T02:01:13;13.40;;;7.40;;
19543;SDS011;9917;51.256;7.152;2022-11-15T02:03:41;11.00;;;6.27;;
19543;SDS011;9917;51.256;7.152;2022-11-15T02:06:11;12.10;;;6.40;;
19543;SDS011;9917;51.256;7.152;2022-11-15T02:08:38;10.98;;;6.22;;
19543;SDS011;9917;51.256;7.152;2022-11-15T02:11:04;9.27;;;5.40;;
19543;SDS011;9917;51.256;7.152;2022-11-15T02:13:32;15.50;;;6.37;;
19543;SDS011;9917;51.256;7.152;2022-11-15T02:15:59;13.37;;;6.37;;
19543;SDS011;9917;51.256;7.152;2022-11-15T02:18:32;11.97;;;6.20;;
19543;SDS011;9917;51.256;7.152;2022-11-15T02:21:05;10.20;;;5.90;;
19543;SDS011;9917;51.256;7.152;2022-11-15T02:23:51;10.23;;;6.27;;
19543;SDS011;9917;51.256;7.152;2022-11-15T02:29:35;8.50;;;5.77;;
19543;SDS011;9917;51.256;7.152;2022-11-15T02:32:20;13.13;;;6.40;;
19543;SDS011;9917;51.256;7.152;2022-11-15T02:34:52;9.90;;;6.15;;
19543;SDS011;9917;51.256;7.152;2022-11-15T02:37:28;11.30;;;6.70;;
19543;SDS011;9917;51.256;7.152;2022-11-15T02:39:59;10.23;;;6.03;;
19543;SDS011;9917;51.256;7.152;2022-11-15T02:42:32;10.83;;;6.57;;
19543;SDS011;9917;51.256;7.152;2022-11-15T02:45:01;12.93;;;6.50;;
19543;SDS011;9917;51.256;7.152;2022-11-15T02:47:32;12.18;;;6.82;;
19543;SDS011;9917;51.256;7.152;2022-11-15T02:50:06;10.80;;;6.83;;
19543;SDS011;9917;51.256;7.152;2022-11-15T02:52:33;12.13;;;6.73;;
19543;SDS011;9917;51.256;7.152;2022-11-15T02:55:00;12.73;;;6.57;;
19543;SDS011;9917;51.256;7.152;2022-11-15T02:57:29;11.23;;;6.80;;
19543;SDS011;9917;51.256;7.152;2022-11-15T03:00:06;10.73;;;6.70;;
19543;SDS011;9917;51.256;7.152;2022-11-15T03:02:39;11.77;;;6.37;;
19543;SDS011;9917;51.256;7.152;2022-11-15T03:05:23;11.67;;;6.30;;
19543;SDS011;9917;51.256;7.152;2022-11-15T03:07:58;11.63;;;6.07;;
19543;SDS011;9917;51.256;7.152;2022-11-15T03:10:32;12.93;;;6.30;;
19543;SDS011;9917;51.256;7.152;2022-11-15T03:13:04;10.57;;;6.17;;
19543;SDS011;9917;51.256;7.152;2022-11-15T03:15:39;11.63;;;6.20;;
19543;SDS011;9917;51.256;7.152;2022-11-15T03:18:10;12.57;;;5.97;;
19543;SDS011;9917;51.256;7.152;2022-11-15T03:20:42;9.57;;;5.50;;
19543;SDS011;9917;51.256;7.152;2022-11-15T03:23:10;10.53;;;5.80;;
19543;SDS011;9917;51.256;7.152;2022-11-15T03:25:38;10.07;;;5.93;;
19543;SDS011;9917;51.256;7.152;2022-11-15T03:28:08;10.73;;;6.17;;
19543;SDS011;9917;51.256;7.152;2022-11-15T03:30:37;10.07;;;5.77;;
19543;SDS011;9917;51.256;7.152;2022-11-15T03:33:04;12.60;;;5.80;;
19543;SDS011;9917;51.256;7.152;2022-11-15T03:35:32;10.40;;;6.10;;
19543;SDS011;9917;51.256;7.152;2022-11-15T03:38:05;9.10;;;5.37;;
19543;SDS011;9917;51.256;7.152;2022-11-15T03:40:36;10.07;;;6.00;;
19543;SDS011;9917;51.256;7.152;2022-11-15T03:43:07;12.53;;;5.57;;
19543;SDS011;9917;51.256;7.152;2022-11-15T03:45:41;9.83;;;5.53;;
19543;SDS011;9917;51.256;7.152;2022-11-15T03:48:12;9.93;;;5.70;;
19543;SDS011;9917;51.256;7.152;2022-11-15T03:50:42;11.27;;;5.40;;
19543;SDS011;9917;51.256;7.152;2022-11-15T03:53:10;12.47;;;6.60;;
19543;SDS011;9917;51.256;7.152;2022-11-15T03:55:36;9.03;;;5.83;;
19543;SDS011;9917;51.256;7.152;2022-11-15T03:58:02;10.17;;;5.33;;
19543;SDS011;9917;51.256;7.152;2022-11-15T04:00:28;10.35;;;6.03;;
19543;SDS011;9917;51.256;7.152;2022-11-15T04:02:54;9.18;;;5.32;;
19543;SDS011;9917;51.256;7.152;2022-11-15T04:05:20;8.57;;;5.47;;
19543;SDS011;9917;51.256;7.152;2022-11-15T04:07:47;10.48;;;5.60;;
19543;SDS011;9917;51.256;7.152;2022-11-15T04:10:13;9.30;;;5.13;;
19543;SDS011;9917;51.256;7.152;2022-11-15T04:12:39;11.20;;;5.43;;
19543;SDS011;9917;51.256;7.152;2022-11-15T04:15:07;7.27;;;4.60;;
19543;SDS011;9917;51.256;7.152;2022-11-15T04:17:35;8.30;;;5.50;;
19543;SDS011;9917;51.256;7.152;2022-11-15T04:20:02;11.45;;;5.90;;
19543;SDS011;9917;51.256;7.152;2022-11-15T04:22:29;11.23;;;5.33;;
19543;SDS011;9917;51.256;7.152;2022-11-15T04:24:56;9.40;;;5.97;;
19543;SDS011;9917;51.256;7.152;2022-11-15T04:27:23;8.80;;;5.30;;
19543;SDS011;9917;51.256;7.152;2022-11-15T04:29:50;8.00;;;5.27;;
19543;SDS011;9917;51.256;7.152;2022-11-15T04:32:16;9.00;;;5.93;;
19543;SDS011;9917;51.256;7.152;2022-11-15T04:34:41;12.60;;;6.07;;
19543;SDS011;9917;51.256;7.152;2022-11-15T04:37:07;10.17;;;5.87;;
19543;SDS011;9917;51.256;7.152;2022-11-15T04:39:33;9.30;;;5.90;;
19543;SDS011;9917;51.256;7.152;2022-11-15T04:42:00;10.70;;;6.40;;
19543;SDS011;9917;51.256;7.152;2022-11-15T04:44:26;7.73;;;5.67;;
19543;SDS011;9917;51.256;7.152;2022-11-15T04:46:52;8.73;;;5.97;;
19543;SDS011;9917;51.256;7.152;2022-11-15T04:49:17;10.47;;;6.30;;
19543;SDS011;9917;51.256;7.152;2022-11-15T04:51:43;10.80;;;6.43;;
19543;SDS011;9917;51.256;7.152;2022-11-15T04:54:09;12.23;;;7.03;;
19543;SDS011;9917;51.256;7.152;2022-11-15T04:56:35;9.48;;;5.97;;
19543;SDS011;9917;51.256;7.152;2022-11-15T04:59:03;11.87;;;6.30;;
19543;SDS011;9917;51.256;7.152;2022-11-15T05:01:28;10.05;;;6.10;;
19543;SDS011;9917;51.256;7.152;2022-11-15T05:03:54;9.82;;;6.43;;
19543;SDS011;9917;51.256;7.152;2022-11-15T05:06:20;9.93;;;6.57;;
19543;SDS011;9917;51.256;7.152;2022-11-15T05:08:46;11.87;;;6.63;;
19543;SDS011;9917;51.256;7.152;2022-11-15T05:11:12;10.47;;;6.20;;
19543;SDS011;9917;51.256;7.152;2022-11-15T05:13:38;9.30;;;6.60;;
19543;SDS011;9917;51.256;7.152;2022-11-15T05:16:05;9.77;;;6.20;;
19543;SDS011;9917;51.256;7.152;2022-11-15T05:18:31;8.75;;;5.65;;
19543;SDS011;9917;51.256;7.152;2022-11-15T05:21:02;8.73;;;6.30;;
19543;SDS011;9917;51.256;7.152;2022-11-15T05:23:28;9.77;;;5.83;;
19543;SDS011;9917;51.256;7.152;2022-11-15T05:25:54;9.23;;;5.43;;
19543;SDS011;9917;51.256;7.152;2022-11-15T05:28:28;10.07;;;6.40;;
19543;SDS011;9917;51.256;7.152;2022-11-15T05:31:00;10.45;;;6.32;;
19543;SDS011;9917;51.256;7.152;2022-11-15T05:33:27;9.90;;;5.83;;
19543;SDS011;9917;51.256;7.152;2022-11-15T05:35:54;9.07;;;5.30;;
19543;SDS011;9917;51.256;7.152;2022-11-15T05:38:25;10.57;;;5.40;;
19543;SDS011;9917;51.256;7.152;2022-11-15T05:40:59;7.68;;;5.25;;
19543;SDS011;9917;51.256;7.152;2022-11-15T05:43:34;8.35;;;5.47;;
19543;SDS011;9917;51.256;7.152;2022-11-15T05:46:05;7.33;;;5.00;;
19543;SDS011;9917;51.256;7.152;2022-11-15T05:48:36;7.28;;;4.78;;
19543;SDS011;9917;51.256;7.152;2022-11-15T05:51:11;7.07;;;4.90;;
19543;SDS011;9917;51.256;7.152;2022-11-15T05:53:42;6.57;;;4.40;;
19543;SDS011;9917;51.256;7.152;2022-11-15T05:56:09;6.50;;;4.45;;
19543;SDS011;9917;51.256;7.152;2022-11-15T05:58:35;7.47;;;4.40;;
19543;SDS011;9917;51.256;7.152;2022-11-15T06:01:01;8.13;;;4.32;;
19543;SDS011;9917;51.256;7.152;2022-11-15T06:03:30;6.20;;;4.10;;
19543;SDS011;9917;51.256;7.152;2022-11-15T06:05:58;5.87;;;3.80;;
19543;SDS011;9917;51.256;7.152;2022-11-15T06:08:23;5.53;;;4.10;;
19543;SDS011;9917;51.256;7.152;2022-11-15T06:10:49;6.27;;;3.80;;
19543;SDS011;9917;51.256;7.152;2022-11-15T06:13:23;6.72;;;3.88;;
19543;SDS011;9917;51.256;7.152;2022-11-15T06:15:54;5.90;;;4.03;;
19543;SDS011;9917;51.256;7.152;2022-11-15T06:18:20;13.23;;;3.85;;
19543;SDS011;9917;51.256;7.152;2022-11-15T06:20:46;7.03;;;4.23;;
19543;SDS011;9917;51.256;7.152;2022-11-15T06:23:13;4.70;;;3.50;;
19543;SDS011;9917;51.256;7.152;2022-11-15T06:25:39;6.35;;;3.70;;
19543;SDS011;9917;51.256;7.152;2022-11-15T06:28:05;5.17;;;3.67;;
19543;SDS011;9917;51.256;7.152;2022-11-15T06:30:31;5.07;;;3.55;;
19543;SDS011;9917;51.256;7.152;2022-11-15T06:33:00;6.78;;;3.28;;
19543;SDS011;9917;51.256;7.152;2022-11-15T06:35:26;7.43;;;3.53;;
19543;SDS011;9917;51.256;7.152;2022-11-15T06:37:53;5.40;;;3.60;;
19543;SDS011;9917;51.256;7.152;2022-11-15T06:40:20;6.57;;;3.25;;
19543;SDS011;9917;51.256;7.152;2022-11-15T06:42:45;7.20;;;3.23;;
19543;SDS011;9917;51.256;7.152;2022-11-15T06:45:11;6.55;;;3.40;;
19543;SDS011;9917;51.256;7.152;2022-11-15T06:47:43;3.90;;;2.93;;
19543;SDS011;9917;51.256;7.152;2022-11-15T06:50:09;4.68;;;3.08;;
19543;SDS011;9917;51.256;7.152;2022-11-15T06:52:35;4.88;;;2.80;;
19543;SDS011;9917;51.256;7.152;2022-11-15T06:55:01;7.13;;;3.10;;
19543;SDS011;9917;51.256;7.152;2022-11-15T06:57:29;4.63;;;2.70;;
19543;SDS011;9917;51.256;7.152;2022-11-15T06:59:54;4.47;;;2.97;;
19543;SDS011;9917;51.256;7.152;2022-11-15T07:02:20;7.47;;;2.93;;
19543;SDS011;9917;51.256;7.152;2022-11-15T07:04:46;3.63;;;2.67;;
19543;SDS011;9917;51.256;7.152;2022-11-15T07:07:12;4.30;;;2.43;;
19543;SDS011;9917;51.256;7.152;2022-11-15T07:09:37;5.73;;;2.10;;
19543;SDS011;9917;51.256;7.152;2022-11-15T07:12:03;3.40;;;2.17;;
19543;SDS011;9917;51.256;7.152;2022-11-15T07:14:31;3.70;;;2.70;;
19543;SDS011;9917;51.256;7.152;2022-11-15T07:16:57;4.97;;;2.50;;
19543;SDS011;9917;51.256;7.152;2022-11-15T07:19:23;4.60;;;2.27;;
19543;SDS011;9917;51.256;7.152;2022-11-15T07:21:48;10.57;;;2.53;;
19543;SDS011;9917;51.256;7.152;2022-11-15T07:24:14;4.43;;;2.20;;
19543;SDS011;9917;51.256;7.152;2022-11-15T07:26:40;3.67;;;2.43;;
19543;SDS011;9917;51.256;7.152;2022-11-15T07:29:06;4.03;;;2.37;;
19543;SDS011;9917;51.256;7.152;2022-11-15T07:31:33;2.87;;;1.90;;
19543;SDS011;9917;51.256;7.152;2022-11-15T07:33:59;6.60;;;2.40;;
19543;SDS011;9917;51.256;7.152;2022-11-15T07:36:25;3.67;;;2.03;;
19543;SDS011;9917;51.256;7.152;2022-11-15T07:38:51;3.83;;;2.20;;
19543;SDS011;9917;51.256;7.152;2022-11-15T07:41:17;4.63;;;2.03;;
19543;SDS011;9917;51.256;7.152;2022-11-15T07:43:43;3.10;;;2.03;;
19543;SDS011;9917;51.256;7.152;2022-11-15T07:46:09;3.60;;;2.00;;
19543;SDS011;9917;51.256;7.152;2022-11-15T07:48:37;3.33;;;1.87;;
19543;SDS011;9917;51.256;7.152;2022-11-15T07:51:03;6.20;;;1.93;;
19543;SDS011;9917;51.256;7.152;2022-11-15T07:53:29;3.57;;;2.10;;
19543;SDS011;9917;51.256;7.152;2022-11-15T07:55:55;3.23;;;2.10;;
19543;SDS011;9917;51.256;7.152;2022-11-15T07:58:21;5.13;;;1.92;;
19543;SDS011;9917;51.256;7.152;2022-11-15T08:00:47;3.70;;;1.90;;
19543;SDS011;9917;51.256;7.152;2022-11-15T08:03:13;3.03;;;1.93;;
19543;SDS011;9917;51.256;7.152;2022-11-15T08:05:42;3.03;;;1.80;;
19543;SDS011;9917;51.256;7.152;2022-11-15T08:08:08;3.67;;;2.15;;
19543;SDS011;9917;51.256;7.152;2022-11-15T08:10:43;3.28;;;1.83;;
19543;SDS011;9917;51.256;7.152;2022-11-15T08:13:10;2.90;;;1.90;;
19543;SDS011;9917;51.256;7.152;2022-11-15T08:15:37;4.73;;;2.20;;
19543;SDS011;9917;51.256;7.152;2022-11-15T08:18:03;2.70;;;1.40;;
19543;SDS011;9917;51.256;7.152;2022-11-15T08:20:31;4.85;;;1.50;;
19543;SDS011;9917;51.256;7.152;2022-11-15T08:23:02;1.80;;;1.33;;
19543;SDS011;9917;51.256;7.152;2022-11-15T08:25:30;4.28;;;1.90;;
19543;SDS011;9917;51.256;7.152;2022-11-15T08:27:57;3.55;;;1.50;;
19543;SDS011;9917;51.256;7.152;2022-11-15T08:30:24;2.25;;;1.55;;
19543;SDS011;9917;51.256;7.152;2022-11-15T08:32:51;3.72;;;1.77;;
19543;SDS011;9917;51.256;7.152;2022-11-15T08:35:24;2.43;;;1.60;;
19543;SDS011;9917;51.256;7.152;2022-11-15T08:37:50;3.13;;;1.57;;
19543;SDS011;9917;51.256;7.152;2022-11-15T08:40:21;2.27;;;1.73;;
19543;SDS011;9917;51.256;7.152;2022-11-15T08:42:47;4.53;;;1.50;;
19543;SDS011;9917;51.256;7.152;2022-11-15T08:45:13;2.65;;;1.50;;
19543;SDS011;9917;51.256;7.152;2022-11-15T08:47:39;3.57;;;1.50;;
19543;SDS011;9917;51.256;7.152;2022-11-15T08:50:06;2.97;;;1.60;;
19543;SDS011;9917;51.256;7.152;2022-11-15T08:52:32;2.90;;;1.40;;
19543;SDS011;9917;51.256;7.152;2022-11-15T08:54:58;3.17;;;1.70;;
19543;SDS011;9917;51.256;7.152;2022-11-15T08:57:39;2.25;;;1.23;;
19543;SDS011;9917;51.256;7.152;2022-11-15T09:00:05;3.35;;;1.75;;
19543;SDS011;9917;51.256;7.152;2022-11-15T09:02:32;4.37;;;1.40;;
19543;SDS011;9917;51.256;7.152;2022-11-15T09:04:58;2.10;;;1.23;;
19543;SDS011;9917;51.256;7.152;2022-11-15T09:07:24;1.50;;;0.90;;
19543;SDS011;9917;51.256;7.152;2022-11-15T09:09:50;2.92;;;1.17;;
19543;SDS011;9917;51.256;7.152;2022-11-15T09:12:16;3.13;;;1.30;;
19543;SDS011;9917;51.256;7.152;2022-11-15T09:14:43;3.75;;;1.27;;
19543;SDS011;9917;51.256;7.152;2022-11-15T09:17:09;2.40;;;1.00;;
19543;SDS011;9917;51.256;7.152;2022-11-15T09:19:35;4.78;;;1.48;;
19543;SDS011;9917;51.256;7.152;2022-11-15T09:22:01;1.73;;;1.00;;
19543;SDS011;9917;51.256;7.152;2022-11-15T09:24:27;2.50;;;1.27;;
19543;SDS011;9917;51.256;7.152;2022-11-15T09:26:53;2.63;;;1.10;;
19543;SDS011;9917;51.256;7.152;2022-11-15T09:29:19;3.15;;;1.10;;
19543;SDS011;9917;51.256;7.152;2022-11-15T09:31:46;1.73;;;1.00;;
19543;SDS011;9917;51.256;7.152;2022-11-15T09:34:12;2.22;;;0.70;;
19543;SDS011;9917;51.256;7.152;2022-11-15T09:36:38;1.60;;;0.85;;
19543;SDS011;9917;51.256;7.152;2022-11-15T09:39:06;3.67;;;1.15;;
19543;SDS011;9917;51.256;7.152;2022-11-15T09:41:44;2.22;;;0.80;;
19543;SDS011;9917;51.256;7.152;2022-11-15T09:44:28;2.42;;;0.65;;
19543;SDS011;9917;51.256;7.152;2022-11-15T09:47:24;1.13;;;0.60;;
19543;SDS011;9917;51.256;7.152;2022-11-15T09:50:07;6.07;;;1.05;;
19543;SDS011;9917;51.256;7.152;2022-11-15T09:52:34;3.55;;;0.88;;
19543;SDS011;9917;51.256;7.152;2022-11-15T09:55:04;2.95;;;0.95;;
19543;SDS011;9917;51.256;7.152;2022-11-15T09:57:37;3.78;;;0.93;;
19543;SDS011;9917;51.256;7.152;2022-11-15T10:00:15;5.70;;;0.90;;
19543;SDS011;9917;51.256;7.152;2022-11-15T10:02:50;1.98;;;0.90;;
19543;SDS011;9917;51.256;7.152;2022-11-15T10:05:42;2.78;;;0.98;;
19543;SDS011;9917;51.256;7.152;2022-11-15T10:08:29;1.85;;;0.95;;
19543;SDS011;9917;51.256;7.152;2022-11-15T10:11:06;2.25;;;0.90;;
19543;SDS011;9917;51.256;7.152;2022-11-15T10:13:35;1.55;;;0.70;;
19543;SDS011;9917;51.256;7.152;2022-11-15T10:16:16;2.70;;;0.57;;
19543;SDS011;9917;51.256;7.152;2022-11-15T10:18:56;1.40;;;0.60;;
19543;SDS011;9917;51.256;7.152;2022-11-15T10:21:37;1.13;;;0.60;;
19543;SDS011;9917;51.256;7.152;2022-11-15T10:24:10;2.15;;;0.77;;
19543;SDS011;9917;51.256;7.152;2022-11-15T10:26:36;3.08;;;1.38;;
19543;SDS011;9917;51.256;7.152;2022-11-15T10:29:02;1.95;;;0.70;;
19543;SDS011;9917;51.256;7.152;2022-11-15T10:31:28;2.42;;;0.85;;
19543;SDS011;9917;51.256;7.152;2022-11-15T10:33:59;5.38;;;1.00;;
19543;SDS011;9917;51.256;7.152;2022-11-15T10:36:43;3.00;;;0.80;;
19543;SDS011;9917;51.256;7.152;2022-11-15T10:39:10;1.90;;;0.73;;
19543;SDS011;9917;51.256;7.152;2022-11-15T10:41:38;2.08;;;0.65;;
19543;SDS011;9917;51.256;7.152;2022-11-15T10:44:17;1.50;;;0.70;;
19543;SDS011;9917;51.256;7.152;2022-11-15T10:53:01;3.40;;;0.68;;
19543;SDS011;9917;51.256;7.152;2022-11-15T10:55:28;2.45;;;0.60;;
19543;SDS011;9917;51.256;7.152;2022-11-15T10:58:03;2.53;;;0.73;;
19543;SDS011;9917;51.256;7.152;2022-11-15T11:00:32;1.00;;;0.70;;
19543;SDS011;9917;51.256;7.152;2022-11-15T11:03:01;2.25;;;0.68;;
19543;SDS011;9917;51.256;7.152;2022-11-15T11:05:30;1.20;;;0.70;;
19543;SDS011;9917;51.256;7.152;2022-11-15T11:07:58;1.73;;;0.70;;
19543;SDS011;9917;51.256;7.152;2022-11-15T11:10:27;3.23;;;0.87;;
19543;SDS011;9917;51.256;7.152;2022-11-15T11:12:55;1.65;;;0.90;;
19543;SDS011;9917;51.256;7.152;2022-11-15T11:15:39;2.80;;;0.80;;
19543;SDS011;9917;51.256;7.152;2022-11-15T11:18:13;2.85;;;0.93;;
19543;SDS011;9917;51.256;7.152;2022-11-15T11:20:49;5.07;;;1.05;;
19543;SDS011;9917;51.256;7.152;2022-11-15T11:23:24;2.22;;;0.70;;
19543;SDS011;9917;51.256;7.152;2022-11-15T11:26:23;2.88;;;0.70;;
19543;SDS011;9917;51.256;7.152;2022-11-15T11:29:02;3.58;;;0.75;;
19543;SDS011;9917;51.256;7.152;2022-11-15T11:31:43;0.93;;;0.43;;
19543;SDS011;9917;51.256;7.152;2022-11-15T11:34:19;1.02;;;0.60;;
19543;SDS011;9917;51.256;7.152;2022-11-15T11:37:10;2.10;;;0.50;;
19543;SDS011;9917;51.256;7.152;2022-11-15T11:39:47;1.92;;;0.50;;
19543;SDS011;9917;51.256;7.152;2022-11-15T11:42:30;1.52;;;0.60;;
19543;SDS011;9917;51.256;7.152;2022-11-15T11:45:05;1.17;;;0.50;;
19543;SDS011;9917;51.256;7.152;2022-11-15T11:47:47;2.80;;;0.50;;
19543;SDS011;9917;51.256;7.152;2022-11-15T11:50:17;1.80;;;0.68;;
19543;SDS011;9917;51.256;7.152;2022-11-15T11:52:50;0.82;;;0.50;;
19543;SDS011;9917;51.256;7.152;2022-11-15T11:55:21;1.33;;;0.60;;
19543;SDS011;9917;51.256;7.152;2022-11-15T11:57:53;2.40;;;0.68;;
19543;SDS011;9917;51.256;7.152;2022-11-15T12:00:27;2.43;;;0.70;;
19543;SDS011;9917;51.256;7.152;2022-11-15T12:03:05;2.20;;;0.32;;
19543;SDS011;9917;51.256;7.152;2022-11-15T12:05:43;1.10;;;0.43;;
19543;SDS011;9917;51.256;7.152;2022-11-15T12:08:27;1.17;;;0.57;;
19543;SDS011;9917;51.256;7.152;2022-11-15T12:10:59;1.83;;;0.52;;
19543;SDS011;9917;51.256;7.152;2022-11-15T12:13:29;2.50;;;0.57;;
19543;SDS011;9917;51.256;7.152;2022-11-15T12:16:16;1.63;;;0.40;;
19543;SDS011;9917;51.256;7.152;2022-11-15T12:18:46;2.63;;;0.50;;
19543;SDS011;9917;51.256;7.152;2022-11-15T12:21:21;2.05;;;0.47;;
19543;SDS011;9917;51.256;7.152;2022-11-15T12:24:02;5.40;;;1.27;;
19543;SDS011;9917;51.256;7.152;2022-11-15T12:26:36;2.45;;;0.63;;
19543;SDS011;9917;51.256;7.152;2022-11-15T12:29:06;1.38;;;0.63;;
19543;SDS011;9917;51.256;7.152;2022-11-15T12:31:39;1.33;;;0.50;;
19543;SDS011;9917;51.256;7.152;2022-11-15T12:34:13;1.02;;;0.60;;
19543;SDS011;9917;51.256;7.152;2022-11-15T12:36:55;1.45;;;0.70;;
19543;SDS011;9917;51.256;7.152;2022-11-15T12:39:24;3.55;;;0.93;;
19543;SDS011;9917;51.256;7.152;2022-11-15T12:42:42;3.03;;;0.50;;
19543;SDS011;9917;51.256;7.152;2022-11-15T12:45:36;1.83;;;0.70;;
19543;SDS011;9917;51.256;7.152;2022-11-15T12:51:06;1.35;;;0.50;;
19543;SDS011;9917;51.256;7.152;2022-11-15T12:53:32;1.30;;;0.43;;
19543;SDS011;9917;51.256;7.152;2022-11-15T12:59:01;6.72;;;1.00;;
19543;SDS011;9917;51.256;7.152;2022-11-15T13:04:27;0.98;;;0.60;;
19543;SDS011;9917;51.256;7.152;2022-11-15T13:07:06;3.20;;;0.60;;
19543;SDS011;9917;51.256;7.152;2022-11-15T13:09:52;1.88;;;0.60;;
19543;SDS011;9917;51.256;7.152;2022-11-15T13:15:33;1.45;;;0.35;;
19543;SDS011;9917;51.256;7.152;2022-11-15T13:20:55;2.25;;;0.55;;
19543;SDS011;9917;51.256;7.152;2022-11-15T13:23:21;3.50;;;0.50;;
19543;SDS011;9917;51.256;7.152;2022-11-15T13:25:55;2.05;;;0.50;;
19543;SDS011;9917;51.256;7.152;2022-11-15T13:28:34;4.28;;;0.68;;
19543;SDS011;9917;51.256;7.152;2022-11-15T13:31:03;2.90;;;;;
19543;SDS011;9917;51.256;7.152;2022-11-15T13:33:43;2.95;;;0.70;;
19543;SDS011;9917;51.256;7.152;2022-11-15T13:36:13;5.78;;;0.60;;
19543;SDS011;9917;51.256;7.152;2022-11-15T13:38:43;1.77;;;0.52;;
19543;SDS011;9917;51.256;7.152;2022-11-15T13:41:16;2.88;;;0.55;;
19543;SDS011;9917;51.256;7.152;2022-11-15T13:43:46;1.83;;;0.68;;
19543;SDS011;9917;51.256;7.152;2022-11-15T13:46:16;2.72;;;0.60;;
19543;SDS011;9917;51.256;7.152;2022-11-15T13:48:43;2.13;;;0.65;;
19543;SDS011;9917;51.256;7.152;2022-11-15T13:51:14;3.30;;;1.15;;
19543;SDS011;9917;51.256;7.152;2022-11-15T13:53:47;2.55;;;0.65;;
19543;SDS011;9917;51.256;7.152;2022-11-15T13:56:18;1.10;;;0.57;;
19543;SDS011;9917;51.256;7.152;2022-11-15T14:01:39;1.35;;;0.70;;
19543;SDS011;9917;51.256;7.152;2022-11-15T14:04:10;3.20;;;0.98;;
19543;SDS011;9917;51.256;7.152;2022-11-15T14:06:43;2.33;;;1.10;;
19543;SDS011;9917;51.256;7.152;2022-11-15T14:09:30;3.35;;;1.00;;
19543;SDS011;9917;51.256;7.152;2022-11-15T14:12:01;2.97;;;1.10;;
19543;SDS011;9917;51.256;7.152;2022-11-15T14:14:47;2.20;;;1.13;;
19543;SDS011;9917;51.256;7.152;2022-11-15T14:17:19;4.35;;;1.38;;
19543;SDS011;9917;51.256;7.152;2022-11-15T14:19:46;3.20;;;1.20;;
19543;SDS011;9917;51.256;7.152;2022-11-15T14:22:19;3.25;;;1.17;;
19543;SDS011;9917;51.256;7.152;2022-11-15T14:24:47;3.60;;;1.30;;
19543;SDS011;9917;51.256;7.152;2022-11-15T14:27:28;2.72;;;1.40;;
19543;SDS011;9917;51.256;7.152;2022-11-15T14:29:55;5.05;;;1.45;;
19543;SDS011;9917;51.256;7.152;2022-11-15T14:32:21;3.72;;;1.15;;
19543;SDS011;9917;51.256;7.152;2022-11-15T14:34:49;3.70;;;1.20;;
19543;SDS011;9917;51.256;7.152;2022-11-15T14:37:20;2.73;;;1.30;;
19543;SDS011;9917;51.256;7.152;2022-11-15T14:39:47;2.45;;;1.50;;
19543;SDS011;9917;51.256;7.152;2022-11-15T14:42:13;6.85;;;1.52;;
19543;SDS011;9917;51.256;7.152;2022-11-15T14:44:39;2.30;;;1.48;;
19543;SDS011;9917;51.256;7.152;2022-11-15T14:47:09;4.03;;;1.40;;
19543;SDS011;9917;51.256;7.152;2022-11-15T14:49:38;3.70;;;1.58;;
19543;SDS011;9917;51.256;7.152;2022-11-15T14:52:07;2.28;;;1.30;;
19543;SDS011;9917;51.256;7.152;2022-11-15T14:54:41;6.07;;;1.60;;
19543;SDS011;9917;51.256;7.152;2022-11-15T14:57:06;4.07;;;1.60;;
19543;SDS011;9917;51.256;7.152;2022-11-15T14:59:32;4.90;;;1.40;;
19543;SDS011;9917;51.256;7.152;2022-11-15T15:01:58;5.10;;;1.27;;
19543;SDS011;9917;51.256;7.152;2022-11-15T15:04:25;4.22;;;1.27;;
19543;SDS011;9917;51.256;7.152;2022-11-15T15:06:51;5.03;;;1.63;;
19543;SDS011;9917;51.256;7.152;2022-11-15T15:09:17;2.23;;;1.47;;
19543;SDS011;9917;51.256;7.152;2022-11-15T15:11:43;2.83;;;1.37;;
19543;SDS011;9917;51.256;7.152;2022-11-15T15:14:09;4.27;;;1.37;;
19543;SDS011;9917;51.256;7.152;2022-11-15T15:16:35;2.30;;;1.25;;
19543;SDS011;9917;51.256;7.152;2022-11-15T15:19:04;3.20;;;1.25;;
19543;SDS011;9917;51.256;7.152;2022-11-15T15:21:33;2.13;;;1.35;;
19543;SDS011;9917;51.256;7.152;2022-11-15T15:23:59;3.03;;;1.30;;
19543;SDS011;9917;51.256;7.152;2022-11-15T15:26:25;5.95;;;1.67;;
19543;SDS011;9917;51.256;7.152;2022-11-15T15:28:51;4.18;;;1.50;;
19543;SDS011;9917;51.256;7.152;2022-11-15T15:31:18;4.05;;;2.10;;
19543;SDS011;9917;51.256;7.152;2022-11-15T15:33:44;7.70;;;2.00;;
19543;SDS011;9917;51.256;7.152;2022-11-15T15:36:11;3.50;;;1.83;;
19543;SDS011;9917;51.256;7.152;2022-11-15T15:38:42;7.18;;;1.95;;
19543;SDS011;9917;51.256;7.152;2022-11-15T15:41:14;3.95;;;1.90;;